Chang Sheng — V3PK — position and weather

sailwx.info

Track history (hours):
 
Tides and Currents Weather Stations Pressure Air Temp Water Temp Dewpoint Dewpoint Depression Visibility Wind Speed Wind Dir Waves Ship Positions

Chang Sheng

Last reported at 2015-Mar-26 08:23 UTC. Time now 2015-Mar-30 20:06 UTC.
Position N 37°23' E 123°01'.

Length 86 m; draft 5.5 m.

Type: Cargo ship. MMSI: 312161000.

Date/timePositionNaut miles runAvg speedWind from/ knotsBaromVisibWave heightAir tempDewpointWater temp
2015-Mar-26 08:23N 37°23' E 123°01'23 9.8
2015-Mar-26 06:04N 37°36' E 122°37'5 9.7
2015-Mar-26 05:31N 37°37' E 122°31'9 9.3
2015-Mar-26 04:33N 37°40' E 122°20'10 9.1
2015-Mar-26 03:30N 37°43' E 122°09'13 9.4
2015-Mar-26 02:05N 37°47' E 121°52'6 9.9
2015-Mar-26 01:29N 37°49' E 121°45'1010.0
2015-Mar-26 00:26N 37°51' E 121°32'910.1
2015-Mar-25 23:33N 37°53' E 121°21'175 9.1
2015-Mar-25 04:16N 38°57' E 117°53'7 8.9
2015-Mar-25 03:32N 38°59' E 117°45'0 0.4
2015-Mar-25 02:33N 38°59' E 117°45'0 0.0
2015-Mar-25 01:33N 38°59' E 117°45'0 0.0
2015-Mar-25 00:33N 38°59' E 117°45'0 0.0
2015-Mar-24 23:33N 38°59' E 117°45'0 0.0
2015-Mar-24 22:21N 38°59' E 117°45'0 0.0
2015-Mar-24 21:21N 38°59' E 117°45'0 0.0
2015-Mar-24 20:33N 38°59' E 117°45'0 0.0
2015-Mar-24 19:33N 38°59' E 117°45'0 0.0
2015-Mar-24 18:33N 38°59' E 117°45'0 0.0
2015-Mar-24 17:33N 38°59' E 117°45'0 0.0
2015-Mar-24 16:27N 38°59' E 117°45'0 0.0
2015-Mar-24 15:33N 38°59' E 117°45'0 0.0
2015-Mar-24 14:33N 38°59' E 117°45'0 0.0
2015-Mar-24 13:33N 38°59' E 117°45'0 0.0
2015-Mar-24 11:33N 38°59' E 117°45'0 0.0
2015-Mar-24 10:33N 38°59' E 117°45'0 0.0
2015-Mar-24 09:33N 38°59' E 117°45'8 7.6
2015-Mar-24 08:33N 38°57' E 117°55'9 8.1
2015-Mar-24 07:29N 38°56' E 118°06'16810.5
2015-Mar-23 15:31N 37°53' E 121°24'9 9.9
2015-Mar-23 14:33N 37°50' E 121°35'1010.0
2015-Mar-23 13:32N 37°47' E 121°48'1110.2
2015-Mar-23 12:27N 37°44' E 122°01'1010.7
2015-Mar-23 11:33N 37°41' E 122°12'1110.8
2015-Mar-23 10:33N 37°37' E 122°26'1010.4
2015-Mar-23 09:33N 37°35' E 122°38'9 8.7
2015-Mar-23 08:33N 37°31' E 122°48'8 7.6
2015-Mar-23 07:33N 37°24' E 122°52'8 6.9
2015-Mar-23 06:23N 37°16' E 122°52'5 5.8
2015-Mar-23 05:30N 37°11' E 122°51'6 6.5
2015-Mar-23 04:31N 37°05' E 122°49'8 8.0
2015-Mar-23 03:33N 36°59' E 122°43'9 9.6
2015-Mar-23 02:33N 36°51' E 122°35'5 5.0
2015-Mar-23 01:33N 36°48' E 122°31'4 3.9
2015-Mar-23 00:33N 36°45' E 122°27'8 7.5
2015-Mar-22 23:33N 36°41' E 122°20'3 0.1
2015-Mar-21 03:28N 36°42' E 122°17'9 9.4
2015-Mar-21 02:33N 36°49' E 122°24'  
Track history (hours):
 
Tides and Currents Weather Stations Pressure Air Temp Water Temp Dewpoint Dewpoint Depression Visibility Wind Speed Wind Dir Waves Ship Positions

Chang Sheng

Last reported at 2015-Mar-26 08:23 UTC. Time now 2015-Mar-30 20:06 UTC.
Position N 37°23' E 123°01'.

Length 86 m; draft 5.5 m.

Type: Cargo ship. MMSI: 312161000.

Date/timePositionNaut miles runAvg speedWind from/ knotsBaromVisibWave heightAir tempDewpointWater temp
2015-Mar-26 08:23N 37°23' E 123°01'23 9.8
2015-Mar-26 06:04N 37°36' E 122°37'5 9.7
2015-Mar-26 05:31N 37°37' E 122°31'9 9.3
2015-Mar-26 04:33N 37°40' E 122°20'10 9.1
2015-Mar-26 03:30N 37°43' E 122°09'13 9.4
2015-Mar-26 02:05N 37°47' E 121°52'6 9.9
2015-Mar-26 01:29N 37°49' E 121°45'1010.0
2015-Mar-26 00:26N 37°51' E 121°32'910.1
2015-Mar-25 23:33N 37°53' E 121°21'175 9.1
2015-Mar-25 04:16N 38°57' E 117°53'7 8.9
2015-Mar-25 03:32N 38°59' E 117°45'0 0.4
2015-Mar-25 02:33N 38°59' E 117°45'0 0.0
2015-Mar-25 01:33N 38°59' E 117°45'0 0.0
2015-Mar-25 00:33N 38°59' E 117°45'0 0.0
2015-Mar-24 23:33N 38°59' E 117°45'0 0.0
2015-Mar-24 22:21N 38°59' E 117°45'0 0.0
2015-Mar-24 21:21N 38°59' E 117°45'0 0.0
2015-Mar-24 20:33N 38°59' E 117°45'0 0.0
2015-Mar-24 19:33N 38°59' E 117°45'0 0.0
2015-Mar-24 18:33N 38°59' E 117°45'0 0.0
2015-Mar-24 17:33N 38°59' E 117°45'0 0.0
2015-Mar-24 16:27N 38°59' E 117°45'0 0.0
2015-Mar-24 15:33N 38°59' E 117°45'0 0.0
2015-Mar-24 14:33N 38°59' E 117°45'0 0.0
2015-Mar-24 13:33N 38°59' E 117°45'0 0.0
2015-Mar-24 11:33N 38°59' E 117°45'0 0.0
2015-Mar-24 10:33N 38°59' E 117°45'0 0.0
2015-Mar-24 09:33N 38°59' E 117°45'8 7.6
2015-Mar-24 08:33N 38°57' E 117°55'9 8.1
2015-Mar-24 07:29N 38°56' E 118°06'16810.5
2015-Mar-23 15:31N 37°53' E 121°24'9 9.9
2015-Mar-23 14:33N 37°50' E 121°35'1010.0
2015-Mar-23 13:32N 37°47' E 121°48'1110.2
2015-Mar-23 12:27N 37°44' E 122°01'1010.7
2015-Mar-23 11:33N 37°41' E 122°12'1110.8
2015-Mar-23 10:33N 37°37' E 122°26'1010.4
2015-Mar-23 09:33N 37°35' E 122°38'9 8.7
2015-Mar-23 08:33N 37°31' E 122°48'8 7.6
2015-Mar-23 07:33N 37°24' E 122°52'8 6.9
2015-Mar-23 06:23N 37°16' E 122°52'5 5.8
2015-Mar-23 05:30N 37°11' E 122°51'6 6.5
2015-Mar-23 04:31N 37°05' E 122°49'8 8.0
2015-Mar-23 03:33N 36°59' E 122°43'9 9.6
2015-Mar-23 02:33N 36°51' E 122°35'5 5.0
2015-Mar-23 01:33N 36°48' E 122°31'4 3.9
2015-Mar-23 00:33N 36°45' E 122°27'8 7.5
2015-Mar-22 23:33N 36°41' E 122°20'3 0.1
2015-Mar-21 03:28N 36°42' E 122°17'9 9.4
2015-Mar-21 02:33N 36°49' E 122°24'  

Dump ship's entire track history